createdAt,value
2018-06-20T00:00:38.939Z,1013.20
2018-06-20T00:01:38.973Z,1013.24
2018-06-20T00:02:38.963Z,1013.20
2018-06-20T00:03:38.941Z,1013.21
2018-06-20T00:04:38.901Z,1013.19
2018-06-20T00:05:38.986Z,1013.22
2018-06-20T00:06:38.941Z,1013.21
2018-06-20T00:07:38.860Z,1013.23
2018-06-20T00:08:39.003Z,1013.22
2018-06-20T00:09:38.865Z,1013.19
2018-06-20T00:10:38.911Z,1013.20
2018-06-20T00:11:38.774Z,1013.18
2018-06-20T00:12:38.833Z,1013.18
2018-06-20T00:13:38.737Z,1013.17
2018-06-20T00:14:38.735Z,1013.17
2018-06-20T00:15:38.734Z,1013.16
2018-06-20T00:16:38.836Z,1013.18
2018-06-20T00:17:38.741Z,1013.17
2018-06-20T00:18:38.801Z,1013.15
2018-06-20T00:19:38.841Z,1013.14
2018-06-20T00:20:38.744Z,1013.13
2018-06-20T00:21:38.886Z,1013.11
2018-06-20T00:22:38.886Z,1013.10
2018-06-20T00:23:38.958Z,1013.10
2018-06-20T00:24:38.889Z,1013.06
2018-06-20T00:25:38.887Z,1013.05
2018-06-20T00:26:39.059Z,1013.03
2018-06-20T00:27:38.893Z,1013.04
2018-06-20T00:28:38.964Z,1013.03
2018-06-20T00:29:38.889Z,1012.99
2018-06-20T00:30:38.971Z,1012.97
2018-06-20T00:31:38.901Z,1012.99
2018-06-20T00:32:38.901Z,1013.00
2018-06-20T00:33:38.965Z,1012.97
2018-06-20T00:34:38.965Z,1013.01
2018-06-20T00:35:38.892Z,1012.97
2018-06-20T00:36:38.892Z,1012.95
2018-06-20T00:37:38.895Z,1012.95
2018-06-20T00:38:38.970Z,1012.91
2018-06-20T00:39:38.895Z,1012.97
2018-06-20T00:40:38.914Z,1012.89
2018-06-20T00:41:39.026Z,1012.89
2018-06-20T00:42:38.942Z,1012.88
2018-06-20T00:43:38.894Z,1012.84
2018-06-20T00:44:39.004Z,1012.81
2018-06-20T00:45:38.942Z,1012.85
2018-06-20T00:46:38.910Z,1012.83
2018-06-20T00:47:39.006Z,1012.80
2018-06-20T00:48:38.991Z,1012.82
2018-06-20T00:49:38.993Z,1012.82
2018-06-20T00:50:38.909Z,1012.83
2018-06-20T00:51:38.904Z,1012.83
2018-06-20T00:52:38.967Z,1012.83
2018-06-20T00:53:38.910Z,1012.79
2018-06-20T00:54:38.901Z,1012.81
2018-06-20T00:55:38.992Z,1012.83
2018-06-20T00:56:38.900Z,1012.84
2018-06-20T00:57:38.898Z,1012.78
2018-06-20T00:58:38.974Z,1012.80
2018-06-20T00:59:38.905Z,1012.80
2018-06-20T01:00:38.972Z,1012.76
2018-06-20T01:01:38.905Z,1012.74
2018-06-20T01:02:38.909Z,1012.74
2018-06-20T01:03:38.976Z,1012.74
2018-06-20T01:04:38.966Z,1012.74
2018-06-20T01:05:38.907Z,1012.77
2018-06-20T01:06:38.978Z,1012.76
2018-06-20T01:07:38.910Z,1012.75
2018-06-20T01:08:38.978Z,1012.74
2018-06-20T01:09:38.912Z,1012.75
2018-06-20T01:10:38.979Z,1012.75
2018-06-20T01:11:39.027Z,1012.74
2018-06-20T01:12:38.884Z,1012.72
2018-06-20T01:13:38.921Z,1012.72
2018-06-20T01:14:38.982Z,1012.72
2018-06-20T01:15:38.966Z,1012.67
2018-06-20T01:16:38.972Z,1012.72
2018-06-20T01:17:38.892Z,1012.68
2018-06-20T01:18:38.859Z,1012.66
2018-06-20T01:19:38.979Z,1012.69
2018-06-20T01:20:38.895Z,1012.69
2018-06-20T01:21:39.054Z,1012.69
2018-06-20T01:22:38.915Z,1012.70
2018-06-20T01:23:39.057Z,1012.69
2018-06-20T01:24:38.996Z,1012.69
2018-06-20T01:25:38.997Z,1012.66
2018-06-20T01:26:39.056Z,1012.70
2018-06-20T01:27:38.930Z,1012.71
2018-06-20T01:28:38.974Z,1012.71
2018-06-20T01:29:38.935Z,1012.68
2018-06-20T01:30:39.009Z,1012.72
2018-06-20T01:31:39.038Z,1012.68
2018-06-20T01:32:38.975Z,1012.70
2018-06-20T01:33:39.041Z,1012.67
2018-06-20T01:34:39.042Z,1012.67
2018-06-20T01:35:39.003Z,1012.65
2018-06-20T01:36:39.044Z,1012.63
2018-06-20T01:37:39.008Z,1012.66
2018-06-20T01:38:39.040Z,1012.68
2018-06-20T01:39:39.003Z,1012.62
2018-06-20T01:40:39.044Z,1012.63
2018-06-20T01:41:39.066Z,1012.62
2018-06-20T01:42:39.010Z,1012.60
2018-06-20T01:43:38.972Z,1012.62
2018-06-20T01:44:39.043Z,1012.56
2018-06-20T01:45:38.993Z,1012.58
2018-06-20T01:46:39.030Z,1012.58
2018-06-20T01:47:39.033Z,1012.61
2018-06-20T01:48:38.952Z,1012.60
2018-06-20T01:49:38.987Z,1012.62
2018-06-20T01:50:38.987Z,1012.64
2018-06-20T01:51:38.986Z,1012.59
2018-06-20T01:52:38.978Z,1012.63
2018-06-20T01:53:38.941Z,1012.60
2018-06-20T01:54:39.053Z,1012.57
2018-06-20T01:55:39.067Z,1012.53
2018-06-20T01:56:39.022Z,1012.58
2018-06-20T01:57:39.028Z,1012.57
2018-06-20T01:58:38.922Z,1012.58
2018-06-20T01:59:38.991Z,1012.56
2018-06-20T02:00:38.998Z,1012.60
2018-06-20T02:01:39.031Z,1012.60
2018-06-20T02:02:38.959Z,1012.59
2018-06-20T02:03:38.983Z,1012.58
2018-06-20T02:04:38.993Z,1012.61
2018-06-20T02:05:39.046Z,1012.62
2018-06-20T02:06:39.055Z,1012.65
2018-06-20T02:07:39.051Z,1012.66
2018-06-20T02:08:39.056Z,1012.63
2018-06-20T02:09:39.025Z,1012.66
2018-06-20T02:10:38.942Z,1012.65
2018-06-20T02:11:39.062Z,1012.62
2018-06-20T02:12:39.007Z,1012.62
2018-06-20T02:13:39.006Z,1012.59
2018-06-20T02:14:38.994Z,1012.62
2018-06-20T02:15:39.069Z,1012.63
2018-06-20T02:16:38.992Z,1012.60
2018-06-20T02:17:38.992Z,1012.60
2018-06-20T02:18:39.048Z,1012.59
2018-06-20T02:19:39.004Z,1012.61
2018-06-20T02:20:39.012Z,1012.62
2018-06-20T02:21:39.031Z,1012.67
2018-06-20T02:22:39.071Z,1012.62
2018-06-20T02:23:39.060Z,1012.64
2018-06-20T02:24:39.056Z,1012.60
2018-06-20T02:25:39.064Z,1012.65
2018-06-20T02:26:38.961Z,1012.63
2018-06-20T02:27:38.973Z,1012.63
2018-06-20T02:28:38.966Z,1012.60
2018-06-20T02:29:39.058Z,1012.63
2018-06-20T02:30:39.022Z,1012.61
2018-06-20T02:31:39.036Z,1012.61
2018-06-20T02:32:39.038Z,1012.64
2018-06-20T02:33:39.040Z,1012.66
2018-06-20T02:34:39.041Z,1012.65
2018-06-20T02:35:39.040Z,1012.65
2018-06-20T02:36:39.020Z,1012.66
2018-06-20T02:37:38.971Z,1012.66
2018-06-20T02:38:39.076Z,1012.67
2018-06-20T02:39:39.131Z,1012.68
2018-06-20T02:40:39.015Z,1012.69
2018-06-20T02:41:38.943Z,1012.71
2018-06-20T02:42:39.055Z,1012.68
2018-06-20T02:43:39.050Z,1012.71
2018-06-20T02:44:39.023Z,1012.70
2018-06-20T02:45:39.008Z,1012.66
2018-06-20T02:46:39.051Z,1012.68
2018-06-20T02:47:39.058Z,1012.68
2018-06-20T02:48:39.057Z,1012.65
2018-06-20T02:49:39.054Z,1012.60
2018-06-20T02:50:38.984Z,1012.61
2018-06-20T02:51:39.034Z,1012.60
2018-06-20T02:52:38.979Z,1012.61
2018-06-20T02:53:39.036Z,1012.61
2018-06-20T02:54:39.164Z,1012.62
2018-06-20T02:55:39.055Z,1012.59
2018-06-20T02:56:39.115Z,1012.63
2018-06-20T02:57:38.997Z,1012.59
2018-06-20T02:58:39.023Z,1012.60
2018-06-20T02:59:39.061Z,1012.60
2018-06-20T03:00:39.099Z,1012.58
2018-06-20T03:01:38.957Z,1012.62
2018-06-20T03:02:38.957Z,1012.60
2018-06-20T03:03:38.973Z,1012.60
2018-06-20T03:04:39.058Z,1012.59
2018-06-20T03:05:38.917Z,1012.62
2018-06-20T03:06:39.045Z,1012.60
2018-06-20T03:07:39.060Z,1012.58
2018-06-20T03:08:39.042Z,1012.56
2018-06-20T03:09:39.060Z,1012.56
2018-06-20T03:10:38.967Z,1012.55
2018-06-20T03:11:39.049Z,1012.59
2018-06-20T03:12:38.988Z,1012.54
2018-06-20T03:13:39.104Z,1012.56
2018-06-20T03:14:39.007Z,1012.61
2018-06-20T03:15:39.089Z,1012.58
2018-06-20T03:16:39.008Z,1012.61
2018-06-20T03:17:39.071Z,1012.61
2018-06-20T03:18:39.035Z,1012.59
2018-06-20T03:19:39.101Z,1012.60
2018-06-20T03:20:39.071Z,1012.56
2018-06-20T03:21:39.068Z,1012.59
2018-06-20T03:22:39.032Z,1012.56
2018-06-20T03:23:39.064Z,1012.57
2018-06-20T03:24:38.980Z,1012.55
2018-06-20T03:25:38.954Z,1012.56
2018-06-20T03:26:39.086Z,1012.53
2018-06-20T03:27:38.948Z,1012.51
2018-06-20T03:28:39.071Z,1012.54
2018-06-20T03:29:38.955Z,1012.52
2018-06-20T03:30:38.955Z,1012.52
2018-06-20T03:31:39.070Z,1012.52
2018-06-20T03:32:39.099Z,1012.54
2018-06-20T03:33:39.058Z,1012.52
2018-06-20T03:34:39.112Z,1012.52
2018-06-20T03:35:39.055Z,1012.55
2018-06-20T03:36:39.043Z,1012.53
2018-06-20T03:37:39.041Z,1012.53
2018-06-20T03:38:39.103Z,1012.54
2018-06-20T03:39:39.080Z,1012.51
2018-06-20T03:40:39.113Z,1012.53
2018-06-20T03:41:39.111Z,1012.53
2018-06-20T03:42:39.062Z,1012.52
2018-06-20T03:43:39.064Z,1012.51
2018-06-20T03:44:39.075Z,1012.54
2018-06-20T03:45:38.960Z,1012.55
2018-06-20T03:46:38.961Z,1012.57
2018-06-20T03:47:39.047Z,1012.51
2018-06-20T03:48:38.995Z,1012.53
2018-06-20T03:49:38.957Z,1012.59
2018-06-20T03:50:39.044Z,1012.55
2018-06-20T03:51:39.021Z,1012.58
2018-06-20T03:52:39.091Z,1012.59
2018-06-20T03:53:39.097Z,1012.58
2018-06-20T03:54:39.028Z,1012.59
2018-06-20T03:55:39.028Z,1012.55
2018-06-20T03:56:39.128Z,1012.54
2018-06-20T03:57:39.095Z,1012.55
2018-06-20T03:58:39.031Z,1012.52
2018-06-20T03:59:39.099Z,1012.55
2018-06-20T04:00:39.100Z,1012.52
2018-06-20T04:01:39.034Z,1012.50
2018-06-20T04:02:38.997Z,1012.49
2018-06-20T04:03:39.058Z,1012.48
2018-06-20T04:04:39.099Z,1012.50
2018-06-20T04:05:39.041Z,1012.52
2018-06-20T04:06:39.010Z,1012.52
2018-06-20T04:07:39.106Z,1012.51
2018-06-20T04:08:39.145Z,1012.52
2018-06-20T04:09:39.109Z,1012.53
2018-06-20T04:10:39.121Z,1012.53
2018-06-20T04:11:39.104Z,1012.54
2018-06-20T04:12:39.052Z,1012.57
2018-06-20T04:13:39.045Z,1012.55
2018-06-20T04:14:39.047Z,1012.51
2018-06-20T04:15:39.042Z,1012.53
2018-06-20T04:16:39.040Z,1012.53
2018-06-20T04:17:39.107Z,1012.49
2018-06-20T04:18:39.114Z,1012.51
2018-06-20T04:19:39.112Z,1012.53
2018-06-20T04:20:39.174Z,1012.51
2018-06-20T04:21:39.113Z,1012.51
2018-06-20T04:22:39.073Z,1012.48
2018-06-20T04:23:39.112Z,1012.48
2018-06-20T04:24:39.031Z,1012.50
2018-06-20T04:25:39.111Z,1012.46
2018-06-20T04:26:39.020Z,1012.47
2018-06-20T04:27:39.091Z,1012.46
2018-06-20T04:28:39.024Z,1012.43
2018-06-20T04:29:39.119Z,1012.46
2018-06-20T04:30:39.082Z,1012.46
2018-06-20T04:31:39.040Z,1012.43
2018-06-20T04:32:39.095Z,1012.44
2018-06-20T04:33:39.115Z,1012.41
2018-06-20T04:34:39.114Z,1012.41
2018-06-20T04:35:39.040Z,1012.44
2018-06-20T04:36:39.046Z,1012.43
2018-06-20T04:37:39.084Z,1012.42
2018-06-20T04:38:39.156Z,1012.43
2018-06-20T04:39:39.045Z,1012.42
2018-06-20T04:40:39.100Z,1012.46
2018-06-20T04:41:39.095Z,1012.45
2018-06-20T04:42:39.059Z,1012.41
2018-06-20T04:43:39.123Z,1012.45
2018-06-20T04:44:39.155Z,1012.43
2018-06-20T04:45:39.127Z,1012.47
2018-06-20T04:46:39.129Z,1012.50
2018-06-20T04:47:39.058Z,1012.47
2018-06-20T04:48:39.128Z,1012.49
2018-06-20T04:49:39.064Z,1012.51
2018-06-20T04:50:39.064Z,1012.54
2018-06-20T04:51:39.068Z,1012.52
2018-06-20T04:52:39.154Z,1012.56
2018-06-20T04:53:39.130Z,1012.51
2018-06-20T04:54:39.130Z,1012.54
2018-06-20T04:55:39.087Z,1012.55
2018-06-20T04:56:39.071Z,1012.54
2018-06-20T04:57:39.038Z,1012.54
2018-06-20T04:58:39.164Z,1012.56
2018-06-20T04:59:39.163Z,1012.53
2018-06-20T05:00:39.177Z,1012.56
2018-06-20T05:01:39.131Z,1012.54
2018-06-20T05:02:39.053Z,1012.55
2018-06-20T05:03:39.095Z,1012.50
2018-06-20T05:04:39.000Z,1012.52
2018-06-20T05:05:39.095Z,1012.48
2018-06-20T05:06:38.996Z,1012.45
2018-06-20T05:07:39.036Z,1012.46
2018-06-20T05:08:39.091Z,1012.43
2018-06-20T05:09:39.002Z,1012.44
2018-06-20T05:10:39.090Z,1012.45
2018-06-20T05:11:39.093Z,1012.45
2018-06-20T05:12:39.048Z,1012.43
2018-06-20T05:13:39.121Z,1012.38
2018-06-20T05:14:39.184Z,1012.41
2018-06-20T05:15:39.173Z,1012.40
2018-06-20T05:16:39.089Z,1012.41
2018-06-20T05:17:39.121Z,1012.42
2018-06-20T05:18:39.203Z,1012.42
2018-06-20T05:19:39.108Z,1012.43
2018-06-20T05:20:39.149Z,1012.40
2018-06-20T05:21:39.076Z,1012.38
2018-06-20T05:22:39.305Z,1012.39
2018-06-20T05:23:39.129Z,1012.36
2018-06-20T05:24:39.181Z,1012.35
2018-06-20T05:25:39.191Z,1012.39
2018-06-20T05:26:39.078Z,1012.39
2018-06-20T05:27:39.154Z,1012.38
2018-06-20T05:28:39.124Z,1012.36
2018-06-20T05:29:39.124Z,1012.37
2018-06-20T05:30:39.189Z,1012.35
2018-06-20T05:31:39.078Z,1012.33
2018-06-20T05:32:39.096Z,1012.31
2018-06-20T05:33:39.165Z,1012.34
2018-06-20T05:34:39.095Z,1012.32
2018-06-20T05:35:39.161Z,1012.31
2018-06-20T05:36:39.117Z,1012.32
2018-06-20T05:37:39.167Z,1012.29
2018-06-20T05:38:39.120Z,1012.27
2018-06-20T05:39:39.102Z,1012.29
2018-06-20T05:40:39.174Z,1012.24
2018-06-20T05:41:39.105Z,1012.27
2018-06-20T05:42:39.086Z,1012.26
2018-06-20T05:43:39.165Z,1012.28
2018-06-20T05:44:39.087Z,1012.27
2018-06-20T05:45:39.112Z,1012.26
2018-06-20T05:46:39.075Z,1012.29
2018-06-20T05:47:39.193Z,1012.27
2018-06-20T05:48:39.208Z,1012.27
2018-06-20T05:49:39.193Z,1012.30
2018-06-20T05:50:39.170Z,1012.28
2018-06-20T05:51:39.091Z,1012.30
2018-06-20T05:52:39.147Z,1012.30
2018-06-20T05:53:39.152Z,1012.31
2018-06-20T05:54:39.118Z,1012.34
2018-06-20T05:55:39.148Z,1012.31
2018-06-20T05:56:39.193Z,1012.31
2018-06-20T05:57:39.216Z,1012.35
2018-06-20T05:58:39.157Z,1012.34
2018-06-20T05:59:39.171Z,1012.35
2018-06-20T06:00:39.218Z,1012.34
2018-06-20T06:01:39.136Z,1012.36
2018-06-20T06:02:39.184Z,1012.35
2018-06-20T06:03:39.187Z,1012.34
2018-06-20T06:04:39.212Z,1012.38
2018-06-20T06:05:39.142Z,1012.34
2018-06-20T06:06:39.228Z,1012.33
2018-06-20T06:07:39.184Z,1012.34
2018-06-20T06:08:39.090Z,1012.32
2018-06-20T06:09:39.145Z,1012.34
2018-06-20T06:10:39.163Z,1012.33
2018-06-20T06:11:39.152Z,1012.35
2018-06-20T06:12:39.104Z,1012.31
2018-06-20T06:13:39.144Z,1012.32
2018-06-20T06:14:39.110Z,1012.30
2018-06-20T06:15:39.062Z,1012.28
2018-06-20T06:16:39.174Z,1012.28
2018-06-20T06:17:39.124Z,1012.30
2018-06-20T06:18:39.093Z,1012.27
2018-06-20T06:19:39.108Z,1012.28
2018-06-20T06:20:39.148Z,1012.26
2018-06-20T06:21:39.175Z,1012.22
2018-06-20T06:22:39.110Z,1012.20
2018-06-20T06:23:39.179Z,1012.26
2018-06-20T06:24:39.141Z,1012.21
2018-06-20T06:25:39.100Z,1012.23
2018-06-20T06:26:39.247Z,1012.24
2018-06-20T06:27:39.116Z,1012.25
2018-06-20T06:28:39.148Z,1012.24
2018-06-20T06:29:39.185Z,1012.22
2018-06-20T06:30:39.160Z,1012.26
2018-06-20T06:31:39.226Z,1012.18
2018-06-20T06:32:39.122Z,1012.17
2018-06-20T06:33:39.198Z,1012.16
2018-06-20T06:34:39.105Z,1012.13
2018-06-20T06:35:39.074Z,1012.13
2018-06-20T06:36:39.105Z,1012.13
2018-06-20T06:37:39.185Z,1012.14
2018-06-20T06:38:39.144Z,1012.11
2018-06-20T06:39:39.109Z,1012.14
2018-06-20T06:40:39.126Z,1012.10
2018-06-20T06:41:39.218Z,1012.08
2018-06-20T06:42:39.205Z,1012.10
2018-06-20T06:43:39.169Z,1012.07
2018-06-20T06:44:39.237Z,1012.06
2018-06-20T06:45:39.205Z,1012.05
2018-06-20T06:46:39.184Z,1012.07
2018-06-20T06:47:39.210Z,1012.03
2018-06-20T06:48:39.173Z,1012.03
2018-06-20T06:49:39.284Z,1012.02
2018-06-20T06:50:39.132Z,1012.03
2018-06-20T06:51:39.114Z,1012.02
2018-06-20T06:52:39.131Z,1012.03
2018-06-20T06:53:39.158Z,1012.04
2018-06-20T06:54:39.208Z,1012.03
2018-06-20T06:55:39.205Z,1012.01
2018-06-20T06:56:39.126Z,1012.04
2018-06-20T06:57:39.147Z,1012.01
2018-06-20T06:58:39.097Z,1012.00
2018-06-20T06:59:39.172Z,1012.03
2018-06-20T07:00:39.207Z,1012.03
2018-06-20T07:01:39.092Z,1012.00
2018-06-20T07:02:39.124Z,1012.02
2018-06-20T07:03:39.138Z,1012.03
2018-06-20T07:04:39.208Z,1012.01
2018-06-20T07:05:39.215Z,1011.98
2018-06-20T07:06:39.127Z,1012.01
2018-06-20T07:07:39.218Z,1011.94
2018-06-20T07:08:39.221Z,1011.97
2018-06-20T07:09:39.214Z,1011.97
2018-06-20T07:10:39.212Z,1011.96
2018-06-20T07:11:39.166Z,1011.96
2018-06-20T07:14:39.163Z,1011.95
2018-06-20T07:15:39.151Z,1011.92
2018-06-20T07:16:39.243Z,1011.93
2018-06-20T07:17:39.181Z,1011.93
2018-06-20T07:18:39.257Z,1011.89
2018-06-20T07:19:39.259Z,1011.90
2018-06-20T07:20:39.150Z,1011.91
2018-06-20T07:21:39.169Z,1011.87
2018-06-20T07:22:39.262Z,1011.87
2018-06-20T07:23:39.192Z,1011.91
2018-06-20T07:24:39.375Z,1011.90
2018-06-20T07:25:39.142Z,1011.89
2018-06-20T07:26:39.260Z,1011.87
2018-06-20T07:27:39.276Z,1011.90
2018-06-20T07:28:39.201Z,1011.88
2018-06-20T07:29:39.257Z,1011.90
2018-06-20T07:30:39.284Z,1011.86
2018-06-20T07:31:39.155Z,1011.86
2018-06-20T07:32:39.285Z,1011.91
2018-06-20T07:33:39.277Z,1011.90
2018-06-20T07:34:39.142Z,1011.90
2018-06-20T07:35:39.424Z,1011.92
2018-06-20T07:36:39.266Z,1011.92
2018-06-20T07:37:39.208Z,1011.90
2018-06-20T07:38:39.264Z,1011.83
2018-06-20T07:39:39.218Z,1011.89
2018-06-20T07:40:39.185Z,1011.86
2018-06-20T07:41:39.164Z,1011.87
2018-06-20T07:42:39.274Z,1011.85
2018-06-20T07:43:39.171Z,1011.83
2018-06-20T07:44:39.184Z,1011.86
2018-06-20T07:45:39.226Z,1011.88
2018-06-20T07:46:39.251Z,1011.88
2018-06-20T07:47:39.147Z,1011.86
2018-06-20T07:48:39.152Z,1011.83
2018-06-20T07:49:39.221Z,1011.83
2018-06-20T07:50:39.291Z,1011.82
2018-06-20T07:51:39.209Z,1011.81
2018-06-20T07:52:39.186Z,1011.78
2018-06-20T07:53:39.188Z,1011.78
2018-06-20T07:54:39.183Z,1011.80
2018-06-20T07:55:39.255Z,1011.78
2018-06-20T07:56:39.254Z,1011.76
2018-06-20T07:57:39.324Z,1011.78
2018-06-20T07:58:39.287Z,1011.75
2018-06-20T07:59:39.192Z,1011.76
2018-06-20T08:00:39.391Z,1011.76
2018-06-20T08:01:39.261Z,1011.75
2018-06-20T08:02:39.191Z,1011.76
2018-06-20T08:03:39.291Z,1011.73
2018-06-20T08:04:39.191Z,1011.74
2018-06-20T08:05:39.259Z,1011.73
2018-06-20T08:06:39.196Z,1011.70
2018-06-20T08:07:39.259Z,1011.71
2018-06-20T08:08:39.280Z,1011.73
2018-06-20T08:09:39.198Z,1011.67
2018-06-20T08:10:39.197Z,1011.69
2018-06-20T08:11:39.265Z,1011.68
2018-06-20T08:12:39.191Z,1011.66
2018-06-20T08:13:39.292Z,1011.68
2018-06-20T08:14:39.304Z,1011.64
2018-06-20T08:15:39.269Z,1011.64
2018-06-20T08:16:39.265Z,1011.62
2018-06-20T08:17:39.295Z,1011.64
2018-06-20T08:18:39.265Z,1011.60
2018-06-20T08:19:39.206Z,1011.60
2018-06-20T08:20:39.193Z,1011.56
2018-06-20T08:21:39.237Z,1011.60
2018-06-20T08:22:39.342Z,1011.61
2018-06-20T08:23:39.287Z,1011.59
2018-06-20T08:24:39.216Z,1011.58
2018-06-20T08:25:39.272Z,1011.63
2018-06-20T08:26:39.271Z,1011.60
2018-06-20T08:27:39.275Z,1011.61
2018-06-20T08:28:39.251Z,1011.57
2018-06-20T08:29:39.318Z,1011.57
2018-06-20T08:30:39.275Z,1011.60
2018-06-20T08:31:39.197Z,1011.56
2018-06-20T08:32:39.280Z,1011.55
2018-06-20T08:33:39.208Z,1011.57
2018-06-20T08:34:39.209Z,1011.53
2018-06-20T08:35:39.278Z,1011.58
2018-06-20T08:36:39.209Z,1011.57
2018-06-20T08:37:39.212Z,1011.53
2018-06-20T08:38:39.214Z,1011.54
2018-06-20T08:39:39.216Z,1011.53
2018-06-20T08:40:39.283Z,1011.54
2018-06-20T08:41:39.288Z,1011.52
2018-06-20T08:42:39.275Z,1011.53
2018-06-20T08:43:39.239Z,1011.55
2018-06-20T08:44:39.203Z,1011.54
2018-06-20T08:45:39.189Z,1011.54
2018-06-20T08:46:39.158Z,1011.54
2018-06-20T08:47:39.239Z,1011.54
2018-06-20T08:48:39.278Z,1011.55
2018-06-20T08:49:39.195Z,1011.52
2018-06-20T08:50:39.257Z,1011.57
2018-06-20T08:51:39.249Z,1011.55
2018-06-20T08:52:39.262Z,1011.59
2018-06-20T08:53:39.255Z,1011.58
2018-06-20T08:54:39.320Z,1011.54
2018-06-20T08:55:39.276Z,1011.56
2018-06-20T08:56:39.365Z,1011.57
2018-06-20T08:57:39.248Z,1011.53
2018-06-20T08:58:39.213Z,1011.52
2018-06-20T08:59:39.272Z,1011.54
2018-06-20T09:00:39.296Z,1011.52
2018-06-20T09:01:39.271Z,1011.50
2018-06-20T09:02:39.304Z,1011.49
2018-06-20T09:03:39.294Z,1011.47
2018-06-20T09:04:39.232Z,1011.48
2018-06-20T09:05:39.298Z,1011.49
2018-06-20T09:06:39.303Z,1011.48
2018-06-20T09:07:39.306Z,1011.46
2018-06-20T09:08:39.283Z,1011.49
2018-06-20T09:09:39.298Z,1011.44
2018-06-20T09:10:39.272Z,1011.45
2018-06-20T09:11:39.237Z,1011.45
2018-06-20T09:12:39.236Z,1011.46
2018-06-20T09:13:39.338Z,1011.44
2018-06-20T09:14:39.204Z,1011.45
2018-06-20T09:15:39.266Z,1011.45
2018-06-20T09:16:39.318Z,1011.45
2018-06-20T09:17:39.263Z,1011.46
2018-06-20T09:18:39.280Z,1011.45
2018-06-20T09:19:39.307Z,1011.44
2018-06-20T09:20:39.210Z,1011.44
2018-06-20T09:21:39.308Z,1011.44
2018-06-20T09:22:39.354Z,1011.44
2018-06-20T09:23:39.240Z,1011.42
2018-06-20T09:24:39.200Z,1011.43
2018-06-20T09:25:39.246Z,1011.44
2018-06-20T09:26:39.261Z,1011.42
2018-06-20T09:27:39.239Z,1011.40
2018-06-20T09:28:39.175Z,1011.42
2018-06-20T09:29:39.248Z,1011.42
2018-06-20T09:30:39.274Z,1011.40
2018-06-20T09:31:39.248Z,1011.41
2018-06-20T09:32:39.297Z,1011.40
2018-06-20T09:33:39.202Z,1011.43
2018-06-20T09:34:39.245Z,1011.45
2018-06-20T09:35:39.191Z,1011.40
2018-06-20T09:36:39.196Z,1011.42
2018-06-20T09:37:39.223Z,1011.44
2018-06-20T09:38:39.268Z,1011.44
2018-06-20T09:39:39.164Z,1011.45
2018-06-20T09:40:39.140Z,1011.42
2018-06-20T09:41:39.185Z,1011.45
2018-06-20T09:42:39.179Z,1011.42
2018-06-20T09:43:39.357Z,1011.42
2018-06-20T09:44:39.302Z,1011.42
2018-06-20T09:45:39.287Z,1011.40
2018-06-20T09:46:39.304Z,1011.39
2018-06-20T09:47:39.345Z,1011.41
2018-06-20T09:48:39.282Z,1011.37
2018-06-20T09:49:39.328Z,1011.37
2018-06-20T09:50:39.298Z,1011.36
2018-06-20T09:51:39.293Z,1011.38
2018-06-20T09:52:39.290Z,1011.38
2018-06-20T09:53:39.333Z,1011.37
2018-06-20T09:54:39.283Z,1011.35
2018-06-20T09:56:39.267Z,1011.36
2018-06-20T09:57:39.295Z,1011.40
2018-06-20T09:58:39.337Z,1011.36
2018-06-20T09:59:39.301Z,1011.33
2018-06-20T10:00:39.407Z,1011.37
2018-06-20T10:01:39.339Z,1011.37
2018-06-20T10:02:39.267Z,1011.39
2018-06-20T10:03:39.358Z,1011.33
2018-06-20T10:04:39.246Z,1011.36
2018-06-20T10:05:39.303Z,1011.37
2018-06-20T10:06:39.398Z,1011.39
2018-06-20T10:07:39.366Z,1011.37
2018-06-20T10:08:39.295Z,1011.30
2018-06-20T10:09:39.244Z,1011.33
2018-06-20T10:10:39.317Z,1011.30
2018-06-20T10:11:39.298Z,1011.35
2018-06-20T10:12:39.364Z,1011.28
2018-06-20T10:13:39.381Z,1011.27
2018-06-20T10:14:39.376Z,1011.29
2018-06-20T10:15:39.306Z,1011.25
2018-06-20T10:16:39.379Z,1011.25
2018-06-20T10:17:39.246Z,1011.24
2018-06-20T10:18:39.306Z,1011.25
2018-06-20T10:19:39.249Z,1011.21
2018-06-20T10:20:39.260Z,1011.16
2018-06-20T10:21:39.285Z,1011.21
2018-06-20T10:22:39.247Z,1011.18
2018-06-20T10:23:39.377Z,1011.15
2018-06-20T10:24:39.352Z,1011.13
2018-06-20T10:25:39.330Z,1011.12
2018-06-20T10:26:39.330Z,1011.13
2018-06-20T10:27:39.330Z,1011.15
2018-06-20T10:28:39.598Z,1011.08
2018-06-20T10:29:39.378Z,1011.07
2018-06-20T10:30:39.380Z,1011.02
2018-06-20T10:31:39.333Z,1011.00
2018-06-20T10:32:39.357Z,1011.00
2018-06-20T10:33:39.312Z,1010.97
2018-06-20T10:34:39.381Z,1010.95
2018-06-20T10:35:39.385Z,1010.93
2018-06-20T10:36:39.256Z,1010.94
2018-06-20T10:37:39.394Z,1010.91
2018-06-20T10:38:39.316Z,1010.91
2018-06-20T10:39:39.339Z,1010.89
2018-06-20T10:40:39.391Z,1010.87
2018-06-20T10:41:39.361Z,1010.87
2018-06-20T10:42:39.302Z,1010.85
2018-06-20T10:43:39.297Z,1010.88
2018-06-20T10:44:39.300Z,1010.84
2018-06-20T10:45:39.298Z,1010.83
2018-06-20T10:46:39.301Z,1010.81
2018-06-20T10:47:39.376Z,1010.83
2018-06-20T10:48:39.297Z,1010.84
2018-06-20T10:49:39.378Z,1010.81
2018-06-20T10:50:39.299Z,1010.79
2018-06-20T10:51:39.391Z,1010.78
2018-06-20T10:52:39.372Z,1010.73
2018-06-20T10:53:39.243Z,1010.73
2018-06-20T10:54:39.369Z,1010.72
2018-06-20T10:55:39.241Z,1010.73
2018-06-20T10:56:39.276Z,1010.70
2018-06-20T10:57:39.307Z,1010.69
2018-06-20T10:58:39.368Z,1010.66
2018-06-20T10:59:39.241Z,1010.71
2018-06-20T11:00:39.253Z,1010.66
2018-06-20T11:01:39.285Z,1010.68
2018-06-20T11:02:39.329Z,1010.62
2018-06-20T11:03:39.341Z,1010.64
2018-06-20T11:04:39.379Z,1010.62
2018-06-20T11:05:39.340Z,1010.66
2018-06-20T11:06:39.283Z,1010.68
2018-06-20T11:07:39.347Z,1010.65
2018-06-20T11:08:39.378Z,1010.63
2018-06-20T11:09:39.447Z,1010.59
2018-06-20T11:10:39.414Z,1010.56
2018-06-20T11:11:39.438Z,1010.56
2018-06-20T11:12:39.378Z,1010.58
2018-06-20T11:13:39.385Z,1010.55
2018-06-20T11:14:39.383Z,1010.57
2018-06-20T11:15:39.415Z,1010.52
2018-06-20T11:16:39.386Z,1010.49
2018-06-20T11:17:39.323Z,1010.47
2018-06-20T11:18:39.387Z,1010.50
2018-06-20T11:19:39.327Z,1010.48
2018-06-20T11:20:39.319Z,1010.51
2018-06-20T11:21:39.364Z,1010.52
2018-06-20T11:22:39.386Z,1010.51
2018-06-20T11:23:39.324Z,1010.47
2018-06-20T11:24:39.391Z,1010.48
2018-06-20T11:25:39.326Z,1010.48
2018-06-20T11:26:39.389Z,1010.47
2018-06-20T11:27:39.332Z,1010.51
2018-06-20T11:28:39.331Z,1010.49
2018-06-20T11:29:39.390Z,1010.49
2018-06-20T11:30:39.391Z,1010.48
2018-06-20T11:31:39.332Z,1010.43
2018-06-20T11:32:39.403Z,1010.39
2018-06-20T11:33:39.402Z,1010.34
2018-06-20T11:34:39.299Z,1010.34
2018-06-20T11:35:39.365Z,1010.37
2018-06-20T11:36:39.426Z,1010.33
2018-06-20T11:37:39.431Z,1010.27
2018-06-20T11:38:39.324Z,1010.34
2018-06-20T11:39:39.309Z,1010.30
2018-06-20T11:40:39.322Z,1010.24
2018-06-20T11:41:39.398Z,1010.20
2018-06-20T11:42:39.383Z,1010.23
2018-06-20T11:43:39.307Z,1010.19
2018-06-20T11:44:39.302Z,1010.15
2018-06-20T11:45:39.398Z,1010.09
2018-06-20T11:46:39.342Z,1010.11
2018-06-20T11:47:39.310Z,1010.05
2018-06-20T11:48:39.299Z,1010.11
2018-06-20T11:49:39.387Z,1010.04
2018-06-20T11:50:39.438Z,1010.03
2018-06-20T11:51:39.319Z,1010.10
2018-06-20T11:52:39.441Z,1010.04
2018-06-20T11:53:39.344Z,1010.04
2018-06-20T11:54:39.409Z,1009.96
2018-06-20T11:55:39.410Z,1009.95
2018-06-20T11:56:39.346Z,1009.99
2018-06-20T11:57:39.369Z,1010.00
2018-06-20T11:58:39.413Z,1009.98
2018-06-20T11:59:39.313Z,1009.94
2018-06-20T12:00:39.414Z,1009.92
2018-06-20T12:01:39.414Z,1009.93
2018-06-20T12:02:39.347Z,1009.91
2018-06-20T12:03:39.389Z,1009.95
2018-06-20T12:04:39.389Z,1009.93
2018-06-20T12:05:39.393Z,1009.91
2018-06-20T12:06:39.384Z,1009.90
2018-06-20T12:07:39.442Z,1009.85
2018-06-20T12:08:39.475Z,1009.84